Flight Track Log - Related Links

Times and Time Zones

All times are in EDT time to prevent confusion due to time zone crossing. See the GLA61C flight status page for this flight to view local times or setup timezone preferences in your user account.

Time Position Orientation Groundspeed Altitude Reporting Facility
EDT Latitude Longitude Course Direction KTS MPH feet Rate Location/Type
Sat 08:40:03 AM 37.3472 -108.5953 48° Northeast 188 216 8,300  Level Denver Center
Sat 08:41:04 AM 37.3953 -108.5561 33° Northeast 182 209 10,500 1,934 Climbing Denver Center
Sat 08:42:00 AM 37.5990 -108.2117 48° Northeast  Level FlightAware Approximate
Sat 08:42:04 AM 37.4311 -108.5081 47° Northeast 187 215 12,200  Level Denver Center
Sat 08:43:00 AM 37.6484 -108.1435 48° Northeast  Level FlightAware Approximate
Sat 08:43:05 AM 37.4661 -108.4528 51° Northeast 197 227 14,000  Level Denver Center
Sat 08:44:00 AM 37.6978 -108.0752 48° Northeast  Level FlightAware Approximate
Sat 08:44:06 AM 37.5097 -108.3886 49° Northeast 208 239 15,800  Level Denver Center
Sat 08:45:00 AM 37.7472 -108.0068 48° Northeast  Level FlightAware Approximate
Sat 08:45:06 AM 37.5483 -108.3325 49° Northeast 217 250 17,200  Level Denver Center
Sat 08:46:07 AM 37.5914 -108.2692 49° Northeast 237 273 18,500 1,328 Climbing Denver Center
Sat 08:47:08 AM 37.6425 -108.1958 49° Northeast 248 285 19,900 1,289 Climbing Denver Center
Sat 08:48:08 AM 37.6853 -108.1294 51° Northeast 252 290 21,100 992 Climbing Denver Center
Sat 08:49:09 AM 37.7319 -108.0644 48° Northeast 258 297 21,900 836 Climbing Denver Center
Sat 08:50:10 AM 37.7858 -107.9844 50° Northeast 265 305 22,800 793 Climbing Denver Center
Sat 08:51:10 AM 37.8314 -107.9114 52° Northeast 274 315 23,500 645 Climbing Denver Center
Sat 08:52:11 AM 37.8797 -107.8408 49° Northeast 276 318 24,100 590 Climbing Denver Center
Sat 08:53:12 AM 37.9353 -107.7550 51° Northeast 281 323 24,700 397 Climbing Denver Center
Sat 08:54:12 AM 37.9844 -107.6764 52° Northeast 291 335 24,900 99 Climbing Denver Center
Sat 08:55:13 AM 38.0367 -107.6017 48° Northeast 296 341 24,900 49 Level Denver Center
Sat 08:56:14 AM 38.0914 -107.5236 48° Northeast 301 346 25,000 50 Climbing Denver Center
Sat 08:57:14 AM 38.1564 -107.4378 46° Northeast 303 349 25,000 -50 Level Denver Center
Sat 08:58:15 AM 38.2128 -107.3678 44° Northeast 298 343 24,900 -49 Descending Denver Center
Sat 08:59:16 AM 38.2678 -107.2967 45° Northeast 295 339 24,900  Level Denver Center
Sat 09:00:17 AM 38.3258 -107.2042 51° Northeast 300 345 24,900 50 Level Denver Center
Sat 09:01:17 AM 38.3839 -107.1275 46° Northeast 294 338 25,000  Climbing Denver Center
Sat 09:02:18 AM 38.4442 -107.0575 42° Northeast 293 337 24,900 -49 Descending Denver Center
Sat 09:03:19 AM 38.4764 -106.9842 61° Northeast 295 339 24,900  Level Denver Center
Sat 09:04:19 AM 38.5114 -106.8644 69° East 301 346 24,900  Level Denver Center
Sat 09:05:20 AM 38.5436 -106.7653 67° East 302 348 24,900 49 Level Denver Center
Sat 09:06:21 AM 38.5747 -106.6664 68° East 301 346 25,000 50 Climbing Denver Center
Sat 09:07:21 AM 38.6064 -106.5678 68° East 301 346 25,000 -50 Level Denver Center
Sat 09:08:22 AM 38.6358 -106.4689 69° East 299 344 24,900 -49 Descending Denver Center
Sat 09:09:23 AM 38.6678 -106.3703 67° East 302 348 24,900  Level Denver Center
Sat 09:10:23 AM 38.6997 -106.2742 67° East 296 341 24,900  Level Denver Center
Sat 09:11:24 AM 38.7403 -106.1667 64° Northeast 295 339 24,900  Level Denver Center
Sat 09:12:25 AM 38.7839 -106.0794 57° Northeast 293 337 24,900 49 Level Denver Center
Sat 09:13:26 AM 38.8286 -105.9986 55° Northeast 290 334 25,000 50 Climbing Denver Center
Sat 09:14:26 AM 38.8758 -105.9183 53° Northeast 293 337 25,000 -198 Level Denver Center
Sat 09:15:27 AM 38.9275 -105.8228 55° Northeast 292 336 24,600 -787 Descending Denver Center
Sat 09:16:28 AM 38.9736 -105.7397 54° Northeast 296 341 23,400 -1,190 Descending Denver Center
Sat 09:17:28 AM 39.0236 -105.6578 52° Northeast 301 346 22,200 -1,537 Descending Denver Center
Sat 09:18:29 AM 39.0844 -105.5722 47° Northeast 292 336 20,300 -1,672 Descending Denver Center
Sat 09:19:30 AM 39.1364 -105.5011 47° Northeast 287 330 18,800 -1,537 Descending Denver Center
Sat 09:20:30 AM 39.1897 -105.4261 47° Northeast 281 323 17,200 -1,240 Descending Denver Center
Sat 09:21:31 AM 39.2428 -105.3556 46° Northeast 274 315 16,300 -590 Descending Denver Center
Sat 09:22:32 AM 39.2958 -105.2703 51° Northeast 282 325 16,000 -148 Descending Denver Center
Sat 09:23:33 AM 39.3522 -105.2000 44° Northeast 285 328 16,000 -545 Level Denver Center
Sat 09:24:33 AM 39.4125 -105.1344 40° Northeast 284 327 14,900 -1,091 Descending Denver Center
Sat 09:25:34 AM 39.4783 -105.0797 33° Northeast 284 327 13,800 -934 Descending Denver Center
Sat 09:26:35 AM 39.5417 -105.0214 35° Northeast 279 321 13,000 -361 Descending Denver Center
Sat 09:27:47 AM 39.6044 -104.9625 36° Northeast 280 322 13,000  Level Denver Center
Sat 09:28:48 AM 39.6783 -104.8842 39° Northeast 280 322 13,000 -246 Level Denver Center
Sat 09:29:49 AM 39.7444 -104.8344 30° Northeast 270 311 12,500 -645 Descending Denver Center
Sat 09:30:49 AM 39.8225 -104.8414 356° North 276 318 11,700 -744 Descending Denver Center
Sat 09:31:50 AM 39.8992 -104.8483 356° North 274 315 11,000 -836 Descending Denver Center
Sat 09:32:51 AM 39.9731 -104.8556 356° North 265 305 10,000 -1,190 Descending Denver Center
Sat 09:33:51 AM 40.0147 -104.7906 50° Northeast 255 293 8,600 -1,289 Descending Denver Center
Sat 09:34:52 AM 40.0039 -104.7025 99° East 248 285 7,400 -1,033 Descending Denver Center
Sat 09:35:53 AM 39.9458 -104.6867 168° South 226 260 6,500 -885 Descending Denver Center
Sat 09:36:54 AM 39.9031 -104.6867 180° South 160 184 5,600 -885 Descending Denver Center
Sat 09:38:00 AM 39.8617 -104.6732 130° Southeast  Level Estimated
Sat 09:45:00 AM 39.8617 -104.6732 130° Southeast  Level Estimated
Sat 09:46:00 AM 39.8617 -104.6732 130° Southeast  Level Estimated

Login

Don't have an account? Register now (free) for customized features, flight alerts, and more!